createdAt,value
2017-03-31T00:00:10.508Z,1012.92
2017-03-31T00:01:10.514Z,1012.89
2017-03-31T00:02:10.520Z,1012.89
2017-03-31T00:03:10.525Z,1012.87
2017-03-31T00:04:10.532Z,1012.86
2017-03-31T00:05:10.537Z,1012.9
2017-03-31T00:06:10.541Z,1012.86
2017-03-31T00:07:10.599Z,1012.84
2017-03-31T00:08:10.555Z,1012.85
2017-03-31T00:09:10.561Z,1012.84
2017-03-31T00:10:10.566Z,1012.82
2017-03-31T00:11:10.573Z,1012.81
2017-03-31T00:12:10.579Z,1012.79
2017-03-31T00:13:10.584Z,1012.78
2017-03-31T00:14:10.591Z,1012.75
2017-03-31T00:15:10.646Z,1012.77
2017-03-31T00:16:10.602Z,1012.75
2017-03-31T00:17:10.608Z,1012.71
2017-03-31T00:18:10.615Z,1012.71
2017-03-31T00:19:10.820Z,1012.66
2017-03-31T00:20:10.629Z,1012.67
2017-03-31T00:21:10.831Z,1012.64
2017-03-31T00:22:10.640Z,1012.6
2017-03-31T00:23:10.645Z,1012.63
2017-03-31T00:24:10.700Z,1012.58
2017-03-31T00:25:10.705Z,1012.56
2017-03-31T00:26:10.663Z,1012.56
2017-03-31T00:27:10.668Z,1012.54
2017-03-31T00:28:10.673Z,1012.56
2017-03-31T00:29:10.680Z,1012.52
2017-03-31T00:30:10.734Z,1012.51
2017-03-31T00:31:10.690Z,1012.51
2017-03-31T00:32:10.696Z,1012.48
2017-03-31T00:33:10.703Z,1012.47
2017-03-31T00:34:10.707Z,1012.49
2017-03-31T00:35:10.715Z,1012.46
2017-03-31T00:36:10.722Z,1012.45
2017-03-31T00:37:10.776Z,1012.43
2017-03-31T00:38:10.782Z,1012.46
2017-03-31T00:39:10.738Z,1012.41
2017-03-31T00:40:10.744Z,1012.39
2017-03-31T00:41:10.904Z,1012.38
2017-03-31T00:42:10.805Z,1012.35
2017-03-31T00:43:10.761Z,1012.38
2017-03-31T00:44:11.268Z,1012.32
2017-03-31T00:45:10.771Z,1012.32
2017-03-31T00:46:10.779Z,1012.3
2017-03-31T00:47:10.836Z,1012.31
2017-03-31T00:48:10.792Z,1012.26
2017-03-31T00:49:10.847Z,1012.29
2017-03-31T00:50:10.803Z,1012.23
2017-03-31T00:51:10.810Z,1012.22
2017-03-31T00:52:10.815Z,1012.18
2017-03-31T00:53:10.820Z,1012.15
2017-03-31T00:54:10.826Z,1012.14
2017-03-31T00:55:11.232Z,1012.16
2017-03-31T00:56:10.838Z,1012.17
2017-03-31T00:57:10.894Z,1012.15
2017-03-31T00:58:10.902Z,1012.08
2017-03-31T00:59:10.856Z,1012.09
2017-03-31T01:00:10.862Z,1012.07
2017-03-31T01:01:10.967Z,1012.09
2017-03-31T01:02:10.873Z,1012.05
2017-03-31T01:03:10.929Z,1012.06
2017-03-31T01:04:10.889Z,1012.04
2017-03-31T01:05:10.892Z,1012.05
2017-03-31T01:06:11.497Z,1012.02
2017-03-31T01:07:10.903Z,1011.99
2017-03-31T01:08:10.958Z,1011.99
2017-03-31T01:09:10.965Z,1011.96
2017-03-31T01:10:10.921Z,1012.01
2017-03-31T01:11:10.975Z,1011.94
2017-03-31T01:12:10.933Z,1011.95
2017-03-31T01:13:10.939Z,1011.94
2017-03-31T01:14:10.944Z,1011.94
2017-03-31T01:15:11.000Z,1011.95
2017-03-31T01:16:10.956Z,1011.92
2017-03-31T01:17:11.612Z,1011.89
2017-03-31T01:18:10.968Z,1011.86
2017-03-31T01:19:11.023Z,1011.92
2017-03-31T01:20:10.979Z,1011.85
2017-03-31T01:21:10.986Z,1011.86
2017-03-31T01:22:10.991Z,1011.81
2017-03-31T01:23:10.996Z,1011.87
2017-03-31T01:24:11.053Z,1011.81
2017-03-31T01:25:11.059Z,1011.81
2017-03-31T01:26:11.015Z,1011.82
2017-03-31T01:27:11.021Z,1011.8
2017-03-31T01:28:11.677Z,1011.78
2017-03-31T01:29:11.033Z,1011.74
2017-03-31T01:30:11.038Z,1011.74
2017-03-31T01:31:11.043Z,1011.74
2017-03-31T01:32:11.050Z,1011.71
2017-03-31T01:33:11.055Z,1011.69
2017-03-31T01:34:11.062Z,1011.73
2017-03-31T01:35:11.118Z,1011.68
2017-03-31T01:36:11.072Z,1011.66
2017-03-31T01:37:11.128Z,1011.64
2017-03-31T01:38:11.086Z,1011.61
2017-03-31T01:39:11.642Z,1011.64
2017-03-31T01:40:11.097Z,1011.63
2017-03-31T01:41:11.151Z,1011.58
2017-03-31T01:42:11.110Z,1011.58
2017-03-31T01:43:11.115Z,1011.54
2017-03-31T01:44:11.171Z,1011.56
2017-03-31T01:45:11.176Z,1011.52
2017-03-31T01:46:11.282Z,1011.52
2017-03-31T01:47:11.138Z,1011.44
2017-03-31T01:48:11.143Z,1011.43
2017-03-31T01:49:11.150Z,1011.42
2017-03-31T01:50:11.556Z,1011.39
2017-03-31T01:51:11.161Z,1011.37
2017-03-31T01:52:11.165Z,1011.35
2017-03-31T01:53:11.223Z,1011.36
2017-03-31T01:54:11.179Z,1011.32
2017-03-31T01:55:11.185Z,1011.29
2017-03-31T01:56:11.194Z,1011.29
2017-03-31T01:57:11.198Z,1011.29
2017-03-31T01:58:11.202Z,1011.27
2017-03-31T01:59:11.209Z,1011.25
2017-03-31T02:00:11.216Z,1011.25
2017-03-31T02:01:11.723Z,1011.25
2017-03-31T02:02:11.227Z,1011.22
2017-03-31T02:03:11.233Z,1011.17
2017-03-31T02:04:11.238Z,1011.17
2017-03-31T02:05:11.243Z,1011.18
2017-03-31T02:06:11.299Z,1011.14
2017-03-31T02:07:11.256Z,1011.17
2017-03-31T02:08:11.312Z,1011.16
2017-03-31T02:09:11.317Z,1011.11
2017-03-31T02:10:11.325Z,1011.12
2017-03-31T02:11:11.329Z,1011.1
2017-03-31T02:12:12.886Z,1011.04
2017-03-31T02:13:11.289Z,1011.03
2017-03-31T02:14:11.295Z,1011.04
2017-03-31T02:15:11.352Z,1011
2017-03-31T02:16:11.309Z,1011.01
2017-03-31T02:17:11.314Z,1010.98
2017-03-31T02:18:11.320Z,1010.96
2017-03-31T02:19:11.328Z,1010.93
2017-03-31T02:20:11.381Z,1010.92
2017-03-31T02:21:11.389Z,1010.89
2017-03-31T02:22:11.345Z,1010.9
2017-03-31T02:23:11.599Z,1010.85
2017-03-31T02:24:11.354Z,1010.84
2017-03-31T02:25:11.361Z,1010.78
2017-03-31T02:26:11.366Z,1010.8
2017-03-31T02:27:11.372Z,1010.78
2017-03-31T02:28:11.378Z,1010.76
2017-03-31T02:29:11.384Z,1010.73
2017-03-31T02:30:11.442Z,1010.7
2017-03-31T02:31:11.397Z,1010.71
2017-03-31T02:32:11.402Z,1010.68
2017-03-31T02:33:11.409Z,1010.68
2017-03-31T02:34:11.662Z,1010.65
2017-03-31T02:35:11.419Z,1010.65
2017-03-31T02:36:11.426Z,1010.65
2017-03-31T02:37:11.482Z,1010.62
2017-03-31T02:38:11.434Z,1010.6
2017-03-31T02:39:11.490Z,1010.54
2017-03-31T02:40:11.498Z,1010.57
2017-03-31T02:41:11.454Z,1010.52
2017-03-31T02:42:11.459Z,1010.51
2017-03-31T02:43:11.515Z,1010.49
2017-03-31T02:44:11.520Z,1010.48
2017-03-31T02:45:11.626Z,1010.43
2017-03-31T02:46:11.532Z,1010.39
2017-03-31T02:47:11.489Z,1010.4
2017-03-31T02:48:11.544Z,1010.42
2017-03-31T02:49:11.549Z,1010.4
2017-03-31T02:50:11.505Z,1010.4
2017-03-31T02:51:11.562Z,1010.38
2017-03-31T02:52:11.518Z,1010.35
2017-03-31T02:53:11.573Z,1010.34
2017-03-31T02:54:11.580Z,1010.35
2017-03-31T02:55:11.536Z,1010.33
2017-03-31T02:56:11.693Z,1010.33
2017-03-31T02:57:11.547Z,1010.34
2017-03-31T02:58:11.553Z,1010.31
2017-03-31T02:59:11.558Z,1010.29
2017-03-31T03:00:11.565Z,1010.28
2017-03-31T03:01:11.570Z,1010.25
2017-03-31T03:02:11.576Z,1010.24
2017-03-31T03:03:11.582Z,1010.17
2017-03-31T03:04:11.587Z,1010.17
2017-03-31T03:05:11.593Z,1010.12
2017-03-31T03:06:11.599Z,1010.11
2017-03-31T03:07:11.606Z,1010.11
2017-03-31T03:08:11.611Z,1010.07
2017-03-31T03:09:11.616Z,1010.05
2017-03-31T03:10:11.623Z,1010
2017-03-31T03:11:11.628Z,1009.99
2017-03-31T03:12:11.633Z,1009.98
2017-03-31T03:13:11.689Z,1009.96
2017-03-31T03:14:11.646Z,1009.93
2017-03-31T03:15:11.654Z,1009.92
2017-03-31T03:16:11.658Z,1009.91
2017-03-31T03:17:11.663Z,1009.89
2017-03-31T03:18:11.718Z,1009.89
2017-03-31T03:19:11.724Z,1009.9
2017-03-31T03:20:11.680Z,1009.86
2017-03-31T03:21:11.686Z,1009.87
2017-03-31T03:22:11.740Z,1009.85
2017-03-31T03:23:11.747Z,1009.8
2017-03-31T03:24:11.703Z,1009.8
2017-03-31T03:25:11.710Z,1009.74
2017-03-31T03:26:11.715Z,1009.68
2017-03-31T03:27:11.770Z,1009.72
2017-03-31T03:28:11.776Z,1009.69
2017-03-31T03:29:11.732Z,1009.64
2017-03-31T03:30:11.737Z,1009.64
2017-03-31T03:31:11.743Z,1009.66
2017-03-31T03:32:11.829Z,1009.66
2017-03-31T03:33:11.755Z,1009.63
2017-03-31T03:34:11.761Z,1009.62
2017-03-31T03:35:11.769Z,1009.61
2017-03-31T03:36:11.775Z,1009.57
2017-03-31T03:37:11.829Z,1009.62
2017-03-31T03:38:11.782Z,1009.58
2017-03-31T03:39:11.791Z,1009.59
2017-03-31T03:40:11.848Z,1009.62
2017-03-31T03:41:11.802Z,1009.6
2017-03-31T03:42:11.807Z,1009.56
2017-03-31T03:43:11.863Z,1009.6
2017-03-31T03:44:11.819Z,1009.53
2017-03-31T03:45:11.825Z,1009.56
2017-03-31T03:46:11.863Z,1009.54
2017-03-31T03:47:11.837Z,1009.51
2017-03-31T03:48:11.841Z,1009.52
2017-03-31T03:49:11.848Z,1009.43
2017-03-31T03:50:11.852Z,1009.49
2017-03-31T03:51:11.858Z,1009.47
2017-03-31T03:52:11.863Z,1009.45
2017-03-31T03:53:11.871Z,1009.41
2017-03-31T03:54:11.927Z,1009.4
2017-03-31T03:55:11.882Z,1009.44
2017-03-31T03:56:11.887Z,1009.37
2017-03-31T03:57:11.945Z,1009.36
2017-03-31T03:58:11.899Z,1009.36
2017-03-31T03:59:11.904Z,1009.32
2017-03-31T04:00:11.910Z,1009.34
2017-03-31T04:01:11.967Z,1009.29
2017-03-31T04:02:11.922Z,1009.28
2017-03-31T04:03:11.928Z,1009.26
2017-03-31T04:04:11.985Z,1009.26
2017-03-31T04:05:11.940Z,1009.27
2017-03-31T04:06:11.945Z,1009.26
2017-03-31T04:07:11.950Z,1009.2
2017-03-31T04:08:11.957Z,1009.18
2017-03-31T04:09:11.963Z,1009.19
2017-03-31T04:10:11.968Z,1009.18
2017-03-31T04:11:11.975Z,1009.17
2017-03-31T04:12:12.031Z,1009.17
2017-03-31T04:13:11.985Z,1009.13
2017-03-31T04:14:11.992Z,1009.1
2017-03-31T04:15:11.997Z,1009.13
2017-03-31T04:16:12.004Z,1009.1
2017-03-31T04:17:12.010Z,1009.08
2017-03-31T04:18:12.015Z,1009.09
2017-03-31T04:19:12.021Z,1009.12
2017-03-31T04:20:12.027Z,1009.12
2017-03-31T04:21:12.080Z,1009.13
2017-03-31T04:22:12.039Z,1009.09
2017-03-31T04:23:12.044Z,1009.09
2017-03-31T04:24:12.049Z,1009.09
2017-03-31T04:25:12.057Z,1009.13
2017-03-31T04:26:12.064Z,1009.07
2017-03-31T04:27:12.068Z,1009.05
2017-03-31T04:28:12.124Z,1009.02
2017-03-31T04:29:12.079Z,1009.06
2017-03-31T04:30:12.119Z,1009.08
2017-03-31T04:31:12.092Z,1009.03
2017-03-31T04:32:12.096Z,1008.99
2017-03-31T04:33:12.102Z,1009.05
2017-03-31T04:34:12.107Z,1009.02
2017-03-31T04:35:12.114Z,1009.06
2017-03-31T04:36:12.170Z,1009.08
2017-03-31T04:37:12.126Z,1009.09
2017-03-31T04:38:12.186Z,1009.09
2017-03-31T04:39:12.136Z,1009.09
2017-03-31T04:40:12.143Z,1009.05
2017-03-31T04:41:12.150Z,1009.03
2017-03-31T04:42:12.205Z,1009.04
2017-03-31T04:43:12.162Z,1009.06
2017-03-31T04:44:12.166Z,1009.03
2017-03-31T04:45:12.171Z,1009.03
2017-03-31T04:46:12.177Z,1009.04
2017-03-31T04:47:12.183Z,1009
2017-03-31T04:48:12.189Z,1009.06
2017-03-31T04:49:12.194Z,1009
2017-03-31T04:50:12.200Z,1008.99
2017-03-31T04:51:12.206Z,1009.01
2017-03-31T04:52:12.211Z,1008.98
2017-03-31T04:53:12.218Z,1008.93
2017-03-31T04:54:12.223Z,1008.93
2017-03-31T04:55:12.230Z,1008.91
2017-03-31T04:56:12.286Z,1008.96
2017-03-31T04:57:12.290Z,1008.94
2017-03-31T04:58:12.247Z,1008.93
2017-03-31T04:59:12.252Z,1008.95
2017-03-31T05:00:12.259Z,1008.9
2017-03-31T05:01:12.264Z,1008.87
2017-03-31T05:02:12.270Z,1008.88
2017-03-31T05:03:12.276Z,1008.89
2017-03-31T05:04:12.283Z,1008.83
2017-03-31T05:05:12.289Z,1008.9
2017-03-31T05:06:12.344Z,1008.84
2017-03-31T05:07:12.300Z,1008.84
2017-03-31T05:08:12.305Z,1008.83
2017-03-31T05:09:12.312Z,1008.83
2017-03-31T05:10:12.317Z,1008.78
2017-03-31T05:11:12.324Z,1008.8
2017-03-31T05:12:12.328Z,1008.81
2017-03-31T05:13:12.334Z,1008.79
2017-03-31T05:14:12.340Z,1008.79
2017-03-31T05:15:12.346Z,1008.79
2017-03-31T05:16:12.351Z,1008.8
2017-03-31T05:17:12.356Z,1008.79
2017-03-31T05:18:12.363Z,1008.77
2017-03-31T05:19:12.468Z,1008.78
2017-03-31T05:20:12.424Z,1008.75
2017-03-31T05:21:12.380Z,1008.78
2017-03-31T05:22:12.386Z,1008.74
2017-03-31T05:23:12.391Z,1008.71
2017-03-31T05:24:12.398Z,1008.68
2017-03-31T05:25:12.404Z,1008.68
2017-03-31T05:26:12.458Z,1008.69
2017-03-31T05:27:12.414Z,1008.69
2017-03-31T05:28:12.472Z,1008.67
2017-03-31T05:29:12.478Z,1008.68
2017-03-31T05:30:12.434Z,1008.67
2017-03-31T05:31:12.489Z,1008.66
2017-03-31T05:32:12.495Z,1008.63
2017-03-31T05:33:12.451Z,1008.66
2017-03-31T05:34:12.456Z,1008.62
2017-03-31T05:35:12.511Z,1008.64
2017-03-31T05:36:12.468Z,1008.67
2017-03-31T05:37:12.523Z,1008.65
2017-03-31T05:38:12.478Z,1008.64
2017-03-31T05:39:12.485Z,1008.64
2017-03-31T05:40:12.541Z,1008.65
2017-03-31T05:41:12.546Z,1008.62
2017-03-31T05:42:12.503Z,1008.62
2017-03-31T05:43:12.509Z,1008.6
2017-03-31T05:44:12.565Z,1008.63
2017-03-31T05:45:12.569Z,1008.63
2017-03-31T05:46:12.576Z,1008.65
2017-03-31T05:47:12.532Z,1008.63
2017-03-31T05:48:12.537Z,1008.6
2017-03-31T05:49:12.592Z,1008.58
2017-03-31T05:50:12.547Z,1008.62
2017-03-31T05:51:12.555Z,1008.63
2017-03-31T05:52:12.760Z,1008.62
2017-03-31T05:53:12.566Z,1008.6
2017-03-31T05:54:12.623Z,1008.62
2017-03-31T05:55:12.576Z,1008.62
2017-03-31T05:56:12.583Z,1008.58
2017-03-31T05:57:12.590Z,1008.6
2017-03-31T05:58:12.596Z,1008.56
2017-03-31T05:59:12.600Z,1008.62
2017-03-31T06:00:12.607Z,1008.6
2017-03-31T06:01:12.665Z,1008.59
2017-03-31T06:02:12.621Z,1008.62
2017-03-31T06:03:12.625Z,1008.59
2017-03-31T06:04:12.632Z,1008.6
2017-03-31T06:05:12.636Z,1008.56
2017-03-31T06:06:12.642Z,1008.56
2017-03-31T06:07:12.697Z,1008.56
2017-03-31T06:08:12.655Z,1008.62
2017-03-31T06:09:12.661Z,1008.58
2017-03-31T06:10:12.666Z,1008.62
2017-03-31T06:11:12.721Z,1008.61
2017-03-31T06:12:12.728Z,1008.61
2017-03-31T06:13:12.682Z,1008.57
2017-03-31T06:14:12.689Z,1008.62
2017-03-31T06:15:12.696Z,1008.6
2017-03-31T06:16:12.703Z,1008.6
2017-03-31T06:17:12.758Z,1008.59
2017-03-31T06:18:12.713Z,1008.6
2017-03-31T06:19:12.719Z,1008.61
2017-03-31T06:20:12.727Z,1008.61
2017-03-31T06:21:12.732Z,1008.61
2017-03-31T06:22:12.792Z,1008.58
2017-03-31T06:23:12.744Z,1008.56
2017-03-31T06:24:12.801Z,1008.6
2017-03-31T06:25:13.010Z,1008.57
2017-03-31T06:26:12.762Z,1008.6
2017-03-31T06:27:12.773Z,1008.56
2017-03-31T06:28:12.825Z,1008.51
2017-03-31T06:29:12.781Z,1008.52
2017-03-31T06:30:12.788Z,1008.52
2017-03-31T06:31:12.795Z,1008.51
2017-03-31T06:32:12.800Z,1008.44
2017-03-31T06:33:12.804Z,1008.43
2017-03-31T06:34:12.863Z,1008.47
2017-03-31T06:35:12.818Z,1008.47
2017-03-31T06:36:12.924Z,1008.44
2017-03-31T06:37:12.833Z,1008.48
2017-03-31T06:38:12.840Z,1008.44
2017-03-31T06:39:12.845Z,1008.45
2017-03-31T06:40:12.901Z,1008.43
2017-03-31T06:41:12.856Z,1008.4
2017-03-31T06:42:12.863Z,1008.36
2017-03-31T06:43:12.867Z,1008.39
2017-03-31T06:44:12.875Z,1008.41
2017-03-31T06:45:12.882Z,1008.43
2017-03-31T06:46:12.938Z,1008.42
2017-03-31T06:47:12.894Z,1008.43
2017-03-31T06:48:12.898Z,1008.42
2017-03-31T06:49:12.906Z,1008.35
2017-03-31T06:50:12.913Z,1008.34
2017-03-31T06:51:13.218Z,1008.35
2017-03-31T06:52:12.926Z,1008.33
2017-03-31T06:53:12.932Z,1008.34
2017-03-31T06:54:12.938Z,1008.35
2017-03-31T06:55:12.943Z,1008.31
2017-03-31T06:56:12.951Z,1008.29
2017-03-31T06:57:12.956Z,1008.31
2017-03-31T06:58:13.112Z,1008.22
2017-03-31T06:59:13.020Z,1008.31
2017-03-31T07:00:12.975Z,1008.28
2017-03-31T07:01:12.980Z,1008.26
2017-03-31T07:02:12.988Z,1008.23
2017-03-31T07:03:12.995Z,1008.28
2017-03-31T07:04:13.049Z,1008.26
2017-03-31T07:05:13.006Z,1008.24
2017-03-31T07:06:13.062Z,1008.23
2017-03-31T07:07:13.018Z,1008.19
2017-03-31T07:08:13.077Z,1008.22
2017-03-31T07:09:13.080Z,1008.23
2017-03-31T07:10:13.038Z,1008.24
2017-03-31T07:11:13.044Z,1008.18
2017-03-31T07:12:13.050Z,1008.21
2017-03-31T07:13:13.055Z,1008.2
2017-03-31T07:14:13.112Z,1008.19
2017-03-31T07:15:13.070Z,1008.2
2017-03-31T07:16:13.075Z,1008.19
2017-03-31T07:17:13.131Z,1008.19
2017-03-31T07:18:13.087Z,1008.15
2017-03-31T07:19:13.095Z,1008.16
2017-03-31T07:20:13.100Z,1008.16
2017-03-31T07:21:13.106Z,1008.15
2017-03-31T07:22:13.162Z,1008.16
2017-03-31T07:23:13.119Z,1008.15
2017-03-31T07:24:13.124Z,1008.13
2017-03-31T07:25:13.133Z,1008.13
2017-03-31T07:26:13.189Z,1008.13
2017-03-31T07:27:13.142Z,1008.08
2017-03-31T07:28:13.149Z,1008.12
2017-03-31T07:29:13.206Z,1008.09
2017-03-31T07:30:13.164Z,1008.08
2017-03-31T07:31:13.268Z,1008.06
2017-03-31T07:32:13.175Z,1008.05
2017-03-31T07:33:13.181Z,1008.15
2017-03-31T07:34:13.238Z,1008.08
2017-03-31T07:35:13.193Z,1008.07
2017-03-31T07:36:13.251Z,1008.12
2017-03-31T07:37:13.206Z,1008.13
2017-03-31T07:38:13.262Z,1008.13
2017-03-31T07:39:13.219Z,1008.12
2017-03-31T07:40:13.226Z,1008.05
2017-03-31T07:41:13.282Z,1008.11
2017-03-31T07:42:13.539Z,1008.08
2017-03-31T07:43:13.244Z,1008.11
2017-03-31T07:44:13.251Z,1008.03
2017-03-31T07:45:13.255Z,1008.07
2017-03-31T07:46:13.313Z,1008.06
2017-03-31T07:47:13.270Z,1008.04
2017-03-31T07:48:13.326Z,1008.03
2017-03-31T07:49:13.281Z,1008.05
2017-03-31T07:50:13.289Z,1008.14
2017-03-31T07:51:13.295Z,1008.06
2017-03-31T07:52:13.352Z,1008.05
2017-03-31T07:53:13.657Z,1008.01
2017-03-31T07:54:13.365Z,1008.06
2017-03-31T07:55:13.319Z,1008
2017-03-31T07:56:13.325Z,1007.99
2017-03-31T07:57:13.331Z,1007.99
2017-03-31T07:58:13.339Z,1008.04
2017-03-31T07:59:13.395Z,1008.02
2017-03-31T08:00:13.352Z,1008
2017-03-31T08:01:13.357Z,1008
2017-03-31T08:02:13.364Z,1007.94
2017-03-31T08:03:13.371Z,1007.94
2017-03-31T08:04:14.027Z,1007.97
2017-03-31T08:05:13.382Z,1008
2017-03-31T08:06:13.390Z,1007.97
2017-03-31T08:07:13.395Z,1008.03
2017-03-31T08:08:13.402Z,1007.98
2017-03-31T08:09:13.407Z,1008.01
2017-03-31T08:10:13.415Z,1008.03
2017-03-31T08:11:13.420Z,1007.99
2017-03-31T08:12:13.477Z,1008.02
2017-03-31T08:13:13.435Z,1008
2017-03-31T08:14:13.488Z,1008.09
2017-03-31T08:15:14.147Z,1008.03
2017-03-31T08:16:13.452Z,1008.06
2017-03-31T08:17:13.460Z,1008.04
2017-03-31T08:18:13.515Z,1008.08
2017-03-31T08:19:13.474Z,1008.12
2017-03-31T08:20:13.481Z,1008.13
2017-03-31T08:21:13.485Z,1008.09
2017-03-31T08:22:13.491Z,1008.12
2017-03-31T08:23:13.548Z,1008.11
2017-03-31T08:24:13.557Z,1008.1
2017-03-31T08:25:13.510Z,1008.13
2017-03-31T08:26:14.418Z,1008.11
2017-03-31T08:27:13.574Z,1008.12
2017-03-31T08:28:13.532Z,1008.37
2017-03-31T08:29:13.587Z,1008.49
2017-03-31T08:30:13.544Z,1008.62
2017-03-31T08:31:13.603Z,1008.63
2017-03-31T08:32:13.559Z,1008.83
2017-03-31T08:33:13.565Z,1008.88
2017-03-31T08:34:13.623Z,1008.82
2017-03-31T08:35:13.582Z,1008.8
2017-03-31T08:36:13.588Z,1008.57
2017-03-31T08:37:14.345Z,1008.64
2017-03-31T08:38:13.601Z,1008.66
2017-03-31T08:39:13.661Z,1008.58
2017-03-31T08:40:13.669Z,1008.54
2017-03-31T08:41:13.625Z,1008.5
2017-03-31T08:42:13.635Z,1008.37
2017-03-31T08:43:13.642Z,1008.52
2017-03-31T08:44:13.649Z,1008.56
2017-03-31T08:45:13.709Z,1008.78
2017-03-31T08:46:13.665Z,1008.44
2017-03-31T08:47:13.723Z,1008.61
2017-03-31T08:48:14.434Z,1008.52
2017-03-31T08:49:13.740Z,1008.44
2017-03-31T08:50:13.746Z,1008.4
2017-03-31T08:51:13.755Z,1008.41
2017-03-31T08:52:13.714Z,1008.23
2017-03-31T08:53:13.723Z,1008.18
2017-03-31T08:54:13.728Z,1008.17
2017-03-31T08:55:13.784Z,1008.1
2017-03-31T08:56:13.791Z,1008.14
2017-03-31T08:57:13.749Z,1008.1
2017-03-31T08:58:13.805Z,1008.14
2017-03-31T08:59:14.865Z,1008.1
2017-03-31T09:00:13.821Z,1008.05
2017-03-31T09:01:13.778Z,1008.07
2017-03-31T09:02:13.834Z,1008.03
2017-03-31T09:03:13.794Z,1008.02
2017-03-31T09:04:13.798Z,1008.01
2017-03-31T09:05:13.807Z,1007.97
2017-03-31T09:06:13.812Z,1007.98
2017-03-31T09:07:13.819Z,1007.94
2017-03-31T09:08:13.827Z,1007.94
2017-03-31T09:09:13.833Z,1007.98
2017-03-31T09:10:14.941Z,1007.93
2017-03-31T09:11:13.847Z,1007.97
2017-03-31T09:12:13.904Z,1007.93
2017-03-31T09:13:13.911Z,1008
2017-03-31T09:14:13.917Z,1007.95
2017-03-31T09:15:13.926Z,1007.96
2017-03-31T09:16:13.883Z,1007.9
2017-03-31T09:17:13.942Z,1007.84
2017-03-31T09:18:13.896Z,1007.86
2017-03-31T09:19:13.904Z,1007.88
2017-03-31T09:20:13.959Z,1007.84
2017-03-31T09:21:13.917Z,1007.77
2017-03-31T09:22:13.925Z,1007.77
2017-03-31T09:23:13.985Z,1007.78
2017-03-31T09:24:13.938Z,1007.76
2017-03-31T09:25:13.944Z,1007.78
2017-03-31T09:26:13.949Z,1007.76
2017-03-31T09:27:13.959Z,1007.79
2017-03-31T09:28:13.968Z,1007.76
2017-03-31T09:29:13.974Z,1007.78
2017-03-31T09:30:14.030Z,1007.76
2017-03-31T09:31:13.986Z,1007.77
2017-03-31T09:32:14.043Z,1007.81
2017-03-31T09:33:14.000Z,1007.84
2017-03-31T09:34:14.006Z,1007.84
2017-03-31T09:35:14.067Z,1007.87
2017-03-31T09:36:14.020Z,1007.89
2017-03-31T09:37:14.077Z,1007.88
2017-03-31T09:38:14.034Z,1007.9
2017-03-31T09:39:14.039Z,1007.86
2017-03-31T09:40:14.048Z,1007.8
2017-03-31T09:41:14.054Z,1007.9
2017-03-31T09:42:14.061Z,1007.86
2017-03-31T09:43:14.067Z,1007.91
2017-03-31T09:44:14.125Z,1007.91
2017-03-31T09:45:14.083Z,1007.88
2017-03-31T09:46:14.139Z,1007.87
2017-03-31T09:47:14.146Z,1007.92
2017-03-31T09:48:14.103Z,1007.9
2017-03-31T09:49:14.109Z,1007.83
2017-03-31T09:50:14.117Z,1007.84
2017-03-31T09:51:14.174Z,1007.8
2017-03-31T09:52:14.181Z,1007.79
2017-03-31T09:53:14.138Z,1007.81
2017-03-31T09:54:14.144Z,1007.85
2017-03-31T09:55:14.153Z,1007.81
2017-03-31T09:56:14.214Z,1007.79
2017-03-31T09:57:14.167Z,1007.76
2017-03-31T09:58:14.223Z,1007.72
2017-03-31T09:59:14.230Z,1007.71
2017-03-31T10:00:14.187Z,1007.65
2017-03-31T10:01:14.193Z,1007.63
2017-03-31T10:02:14.251Z,1007.64
2017-03-31T10:03:14.208Z,1007.64
2017-03-31T10:04:14.266Z,1007.6
2017-03-31T10:05:14.221Z,1007.57
2017-03-31T10:06:14.228Z,1007.56
2017-03-31T10:07:14.235Z,1007.57
2017-03-31T10:08:14.291Z,1007.54
2017-03-31T10:09:14.299Z,1007.56
2017-03-31T10:10:14.254Z,1007.51
2017-03-31T10:11:14.262Z,1007.57
2017-03-31T10:12:14.270Z,1007.52
2017-03-31T10:13:14.277Z,1007.57
2017-03-31T10:14:14.286Z,1007.53
2017-03-31T10:15:14.290Z,1007.52
2017-03-31T10:16:14.297Z,1007.58
2017-03-31T10:17:14.353Z,1007.54
2017-03-31T10:18:14.313Z,1007.51
2017-03-31T10:19:14.317Z,1007.52
2017-03-31T10:20:14.325Z,1007.52
2017-03-31T10:21:14.331Z,1007.52
2017-03-31T10:22:14.338Z,1007.47
2017-03-31T10:23:14.345Z,1007.49
2017-03-31T10:24:14.351Z,1007.55
2017-03-31T10:25:14.360Z,1007.5
2017-03-31T10:26:14.367Z,1007.48
2017-03-31T10:27:14.873Z,1007.44
2017-03-31T10:28:14.430Z,1007.4
2017-03-31T10:29:14.438Z,1007.38
2017-03-31T10:30:14.393Z,1007.42
2017-03-31T10:31:14.451Z,1007.41
2017-03-31T10:32:14.407Z,1007.39
2017-03-31T10:33:14.413Z,1007.37
2017-03-31T10:34:14.472Z,1007.36
2017-03-31T10:35:14.428Z,1007.36
2017-03-31T10:36:14.434Z,1007.35
2017-03-31T10:37:14.494Z,1007.34
2017-03-31T10:38:14.450Z,1007.38
2017-03-31T10:39:14.455Z,1007.36
2017-03-31T10:40:14.463Z,1007.31
2017-03-31T10:41:14.470Z,1007.35
2017-03-31T10:42:14.476Z,1007.34
2017-03-31T10:43:14.485Z,1007.38
2017-03-31T10:44:14.511Z,1007.32
2017-03-31T10:45:14.547Z,1007.3
2017-03-31T10:46:14.506Z,1007.29
2017-03-31T10:47:14.512Z,1007.26
2017-03-31T10:48:14.518Z,1007.31
2017-03-31T10:49:14.525Z,1007.25
2017-03-31T10:50:14.532Z,1007.26
2017-03-31T10:51:14.540Z,1007.23
2017-03-31T10:52:14.545Z,1007.27
2017-03-31T10:53:14.555Z,1007.27
2017-03-31T10:54:14.559Z,1007.25
2017-03-31T10:55:14.566Z,1007.24
2017-03-31T10:56:14.574Z,1007.22
2017-03-31T10:57:14.580Z,1007.17
2017-03-31T10:58:14.588Z,1007.21
2017-03-31T10:59:14.594Z,1007.14
2017-03-31T11:00:14.651Z,1007.16
2017-03-31T11:01:14.610Z,1007.16
2017-03-31T11:02:14.866Z,1007.14
2017-03-31T11:03:14.623Z,1007.1
2017-03-31T11:04:14.629Z,1007.17
2017-03-31T11:05:14.636Z,1007.15
2017-03-31T11:06:14.645Z,1007.14
2017-03-31T11:07:14.651Z,1007.08
2017-03-31T11:08:14.705Z,1007.09
2017-03-31T11:09:14.663Z,1007.11
2017-03-31T11:10:14.671Z,1007.1
2017-03-31T11:11:14.677Z,1007.15
2017-03-31T11:12:14.735Z,1007.17
2017-03-31T11:13:15.242Z,1007.13
2017-03-31T11:14:14.754Z,1007.13
2017-03-31T11:15:14.705Z,1007.13
2017-03-31T11:16:14.713Z,1007.11
2017-03-31T11:17:14.767Z,1007.03
2017-03-31T11:18:14.725Z,1007.11
2017-03-31T11:19:14.734Z,1007.1
2017-03-31T11:20:14.740Z,1007.1
2017-03-31T11:21:14.748Z,1007.09
2017-03-31T11:22:14.804Z,1007.04
2017-03-31T11:23:14.759Z,1007.07
2017-03-31T11:24:15.468Z,1007.09
2017-03-31T11:25:14.828Z,1007.13
2017-03-31T11:26:14.781Z,1007.05
2017-03-31T11:27:14.790Z,1007.04
2017-03-31T11:28:14.796Z,1006.95
2017-03-31T11:29:14.805Z,1007.02
2017-03-31T11:30:14.810Z,1006.97
2017-03-31T11:31:14.817Z,1006.94
2017-03-31T11:32:14.822Z,1006.91
2017-03-31T11:33:14.830Z,1006.92
2017-03-31T11:34:14.837Z,1006.94
2017-03-31T11:35:15.594Z,1006.88
2017-03-31T11:36:14.901Z,1006.87
2017-03-31T11:37:14.857Z,1006.79
2017-03-31T11:38:14.865Z,1006.81
2017-03-31T11:39:14.922Z,1006.86
2017-03-31T11:40:14.880Z,1006.79
2017-03-31T11:41:14.885Z,1006.74
2017-03-31T11:42:14.893Z,1006.74
2017-03-31T11:43:14.899Z,1006.75
2017-03-31T11:44:15.307Z,1006.8
2017-03-31T11:45:14.913Z,1006.8
2017-03-31T11:46:14.919Z,1006.87
2017-03-31T11:47:14.926Z,1006.79
2017-03-31T11:48:14.934Z,1006.82
2017-03-31T11:49:14.991Z,1006.78
2017-03-31T11:50:14.953Z,1006.78
2017-03-31T11:51:15.005Z,1006.75
2017-03-31T11:52:14.962Z,1006.68
2017-03-31T11:53:14.968Z,1006.66
2017-03-31T11:54:14.975Z,1006.78
2017-03-31T11:55:15.387Z,1006.67
2017-03-31T11:56:14.989Z,1006.63
2017-03-31T11:57:14.994Z,1006.61
2017-03-31T11:58:15.002Z,1006.59
2017-03-31T11:59:15.010Z,1006.54
2017-03-31T12:00:15.016Z,1006.59
2017-03-31T12:01:15.021Z,1006.58
2017-03-31T12:02:15.030Z,1006.57
2017-03-31T12:03:15.037Z,1006.55
2017-03-31T12:04:15.046Z,1006.54
2017-03-31T12:05:15.050Z,1006.51
2017-03-31T12:06:15.959Z,1006.51
2017-03-31T12:07:15.863Z,1006.57
2017-03-31T12:08:15.070Z,1006.6